createdAt,value
2023-05-06T00:00:16.867Z,14.78
2023-05-06T00:01:16.840Z,14.79
2023-05-06T00:02:16.853Z,14.82
2023-05-06T00:03:16.895Z,14.78
2023-05-06T00:04:16.877Z,14.82
2023-05-06T00:05:16.799Z,14.77
2023-05-06T00:06:16.772Z,14.77
2023-05-06T00:07:16.760Z,14.72
2023-05-06T00:08:16.750Z,14.78
2023-05-06T00:09:16.762Z,14.72
2023-05-06T00:10:16.743Z,14.73
2023-05-06T00:11:16.704Z,14.70
2023-05-06T00:12:16.694Z,14.72
2023-05-06T00:13:16.814Z,14.70
2023-05-06T00:14:16.690Z,14.73
2023-05-06T00:15:16.652Z,14.68
2023-05-06T00:16:16.704Z,14.70
2023-05-06T00:17:16.628Z,14.70
2023-05-06T00:18:16.613Z,14.77
2023-05-06T00:19:16.622Z,14.73
2023-05-06T00:20:16.690Z,14.69
2023-05-06T00:21:16.570Z,14.72
2023-05-06T00:22:16.577Z,14.66
2023-05-06T00:23:16.542Z,14.68
2023-05-06T00:24:16.548Z,14.62
2023-05-06T00:25:16.524Z,14.60
2023-05-06T00:26:16.539Z,14.55
2023-05-06T00:27:16.492Z,14.54
2023-05-06T00:28:16.476Z,14.55
2023-05-06T00:29:16.476Z,14.58
2023-05-06T00:30:16.452Z,14.58
2023-05-06T00:31:16.477Z,14.58
2023-05-06T00:32:16.422Z,14.55
2023-05-06T00:33:16.440Z,14.55
2023-05-06T00:34:16.409Z,14.47
2023-05-06T00:35:16.385Z,14.45
2023-05-06T00:36:16.392Z,14.43
2023-05-06T00:37:16.358Z,14.41
2023-05-06T00:38:16.355Z,14.36
2023-05-06T00:39:16.327Z,14.37
2023-05-06T00:40:16.332Z,14.37
2023-05-06T00:41:16.325Z,14.37
2023-05-06T00:42:16.294Z,14.44
2023-05-06T00:43:16.295Z,14.44
2023-05-06T00:44:16.269Z,14.43
2023-05-06T00:45:16.250Z,14.41
2023-05-06T00:46:16.267Z,14.45
2023-05-06T00:47:16.230Z,14.41
2023-05-06T00:48:16.328Z,14.41
2023-05-06T00:49:16.190Z,14.43
2023-05-06T00:50:16.190Z,14.40
2023-05-06T00:51:16.166Z,14.41
2023-05-06T00:52:16.475Z,14.41
2023-05-06T00:53:16.157Z,14.40
2023-05-06T00:54:16.145Z,14.35
2023-05-06T00:55:16.117Z,14.36
2023-05-06T00:56:16.097Z,14.41
2023-05-06T00:57:16.101Z,14.32
2023-05-06T00:58:16.077Z,14.30
2023-05-06T00:59:16.056Z,14.26
2023-05-06T01:00:16.043Z,14.22
2023-05-06T01:01:16.081Z,14.17
2023-05-06T01:02:16.051Z,14.22
2023-05-06T01:03:16.103Z,14.17
2023-05-06T01:04:16.042Z,14.18
2023-05-06T01:05:16.013Z,14.17
2023-05-06T01:06:15.977Z,14.15
2023-05-06T01:07:15.948Z,14.17
2023-05-06T01:08:16.063Z,14.18
2023-05-06T01:09:15.927Z,14.20
2023-05-06T01:10:15.911Z,14.18
2023-05-06T01:11:16.127Z,14.20
2023-05-06T01:12:15.884Z,14.17
2023-05-06T01:13:16.027Z,14.17
2023-05-06T01:14:15.862Z,14.15
2023-05-06T01:15:15.854Z,14.14
2023-05-06T01:16:15.846Z,14.10
2023-05-06T01:17:15.891Z,14.07
2023-05-06T01:18:15.803Z,14.05
2023-05-06T01:19:15.793Z,14.03
2023-05-06T01:20:15.793Z,13.97
2023-05-06T01:21:15.787Z,13.96
2023-05-06T01:22:15.751Z,13.96
2023-05-06T01:23:15.736Z,13.93
2023-05-06T01:24:15.740Z,13.92
2023-05-06T01:25:15.731Z,13.89
2023-05-06T01:26:15.693Z,13.85
2023-05-06T01:27:15.681Z,13.79
2023-05-06T01:28:15.675Z,13.74
2023-05-06T01:29:15.653Z,13.68
2023-05-06T01:30:15.661Z,13.62
2023-05-06T01:31:15.757Z,13.63
2023-05-06T01:32:15.614Z,13.60
2023-05-06T01:33:15.598Z,13.63
2023-05-06T01:34:15.641Z,13.60
2023-05-06T01:35:15.591Z,13.59
2023-05-06T01:36:15.558Z,13.56
2023-05-06T01:37:15.542Z,13.60
2023-05-06T01:38:15.538Z,13.56
2023-05-06T01:39:15.528Z,13.56
2023-05-06T01:40:15.597Z,13.53
2023-05-06T01:41:15.501Z,13.53
2023-05-06T01:42:15.479Z,13.53
2023-05-06T01:43:15.467Z,13.57
2023-05-06T01:44:15.472Z,13.56
2023-05-06T01:45:15.442Z,13.56
2023-05-06T01:46:15.459Z,13.52
2023-05-06T01:47:15.405Z,13.59
2023-05-06T01:48:15.402Z,13.53
2023-05-06T01:49:15.420Z,13.54
2023-05-06T01:50:15.379Z,13.50
2023-05-06T01:51:15.366Z,13.50
2023-05-06T01:52:15.339Z,13.50
2023-05-06T01:53:15.348Z,13.49
2023-05-06T01:54:15.346Z,13.50
2023-05-06T01:55:15.299Z,13.50
2023-05-06T01:56:15.302Z,13.52
2023-05-06T01:57:15.274Z,13.49
2023-05-06T01:58:15.273Z,13.52
2023-05-06T01:59:15.244Z,13.47
2023-05-06T02:00:15.231Z,13.44
2023-05-06T02:01:15.263Z,13.38
2023-05-06T02:02:15.216Z,13.44
2023-05-06T02:03:15.364Z,13.41
2023-05-06T02:04:15.182Z,13.42
2023-05-06T02:05:15.159Z,13.37
2023-05-06T02:06:15.148Z,13.38
2023-05-06T02:07:15.155Z,13.35
2023-05-06T02:08:15.156Z,13.30
2023-05-06T02:09:15.110Z,13.33
2023-05-06T02:10:15.098Z,13.35
2023-05-06T02:11:15.078Z,13.31
2023-05-06T02:12:15.102Z,13.30
2023-05-06T02:13:15.133Z,13.33
2023-05-06T02:14:15.050Z,13.31
2023-05-06T02:15:15.027Z,13.30
2023-05-06T02:16:15.062Z,13.33
2023-05-06T02:17:15.011Z,13.30
2023-05-06T02:18:14.981Z,13.27
2023-05-06T02:19:14.982Z,13.31
2023-05-06T02:20:14.959Z,13.30
2023-05-06T02:21:14.977Z,13.25
2023-05-06T02:22:14.950Z,13.28
2023-05-06T02:23:14.932Z,13.22
2023-05-06T02:24:14.910Z,13.20
2023-05-06T02:25:14.887Z,13.20
2023-05-06T02:26:14.897Z,13.22
2023-05-06T02:27:14.866Z,13.18
2023-05-06T02:28:14.886Z,13.15
2023-05-06T02:29:14.858Z,13.15
2023-05-06T02:30:14.862Z,13.15
2023-05-06T02:31:14.874Z,13.11
2023-05-06T02:32:14.830Z,13.11
2023-05-06T02:33:14.784Z,13.16
2023-05-06T02:34:14.794Z,13.11
2023-05-06T02:35:14.773Z,13.09
2023-05-06T02:36:14.768Z,13.11
2023-05-06T02:37:14.727Z,13.03
2023-05-06T02:38:14.712Z,13.03
2023-05-06T02:39:14.703Z,13.00
2023-05-06T02:40:14.699Z,12.97
2023-05-06T02:41:14.670Z,12.93
2023-05-06T02:42:14.694Z,12.86
2023-05-06T02:43:14.640Z,12.87
2023-05-06T02:44:14.723Z,12.87
2023-05-06T02:45:14.638Z,12.85
2023-05-06T02:46:14.630Z,12.90
2023-05-06T02:47:14.597Z,12.83
2023-05-06T02:48:14.580Z,12.87
2023-05-06T02:49:14.558Z,12.87
2023-05-06T02:50:14.562Z,12.90
2023-05-06T02:51:14.545Z,12.91
2023-05-06T02:52:14.521Z,12.97
2023-05-06T02:53:14.514Z,13.03
2023-05-06T02:54:14.553Z,13.04
2023-05-06T02:55:14.506Z,13.05
2023-05-06T02:56:14.474Z,13.08
2023-05-06T02:57:14.457Z,13.09
2023-05-06T02:58:14.455Z,13.12
2023-05-06T02:59:14.434Z,13.13
2023-05-06T03:00:14.673Z,13.13
2023-05-06T03:01:14.416Z,13.12
2023-05-06T03:02:14.402Z,13.08
2023-05-06T03:03:14.372Z,13.08
2023-05-06T03:04:14.460Z,13.09
2023-05-06T03:05:14.342Z,13.13
2023-05-06T03:06:14.355Z,13.16
2023-05-06T03:07:14.313Z,13.13
2023-05-06T03:08:14.324Z,13.09
2023-05-06T03:09:14.299Z,13.12
2023-05-06T03:10:14.277Z,13.11
2023-05-06T03:11:14.260Z,13.13
2023-05-06T03:12:14.264Z,13.12
2023-05-06T03:13:14.479Z,13.15
2023-05-06T03:14:14.241Z,13.15
2023-05-06T03:15:14.221Z,13.12
2023-05-06T03:16:14.359Z,13.16
2023-05-06T03:17:14.176Z,13.12
2023-05-06T03:18:14.178Z,13.11
2023-05-06T03:19:14.149Z,13.01
2023-05-06T03:20:14.141Z,13.03
2023-05-06T03:21:14.166Z,13.00
2023-05-06T03:22:14.137Z,12.97
2023-05-06T03:23:14.110Z,12.91
2023-05-06T03:24:14.093Z,12.93
2023-05-06T03:25:14.079Z,12.86
2023-05-06T03:26:14.056Z,12.82
2023-05-06T03:27:14.062Z,12.79
2023-05-06T03:28:14.052Z,12.70
2023-05-06T03:29:14.019Z,12.62
2023-05-06T03:30:14.008Z,12.60
2023-05-06T03:31:14.041Z,12.57
2023-05-06T03:32:14.085Z,12.61
2023-05-06T03:33:13.974Z,12.61
2023-05-06T03:34:13.951Z,12.60
2023-05-06T03:35:13.939Z,12.55
2023-05-06T03:36:13.930Z,12.53
2023-05-06T03:37:13.938Z,12.54
2023-05-06T03:38:13.894Z,12.53
2023-05-06T03:39:13.892Z,12.47
2023-05-06T03:40:13.883Z,12.50
2023-05-06T03:41:13.856Z,12.47
2023-05-06T03:42:13.857Z,12.47
2023-05-06T03:43:13.828Z,12.45
2023-05-06T03:44:13.825Z,12.43
2023-05-06T03:45:13.807Z,12.45
2023-05-06T03:46:13.812Z,12.40
2023-05-06T03:47:13.806Z,12.37
2023-05-06T03:48:14.044Z,12.31
2023-05-06T03:49:13.755Z,12.28
2023-05-06T03:50:13.777Z,12.25
2023-05-06T03:51:13.773Z,12.24
2023-05-06T03:52:13.746Z,12.22
2023-05-06T03:53:13.701Z,12.18
2023-05-06T03:54:13.696Z,12.17
2023-05-06T03:55:13.681Z,12.22
2023-05-06T03:56:13.673Z,12.22
2023-05-06T03:57:13.644Z,12.21
2023-05-06T03:58:13.645Z,12.25
2023-05-06T03:59:13.629Z,12.22
2023-05-06T04:00:13.618Z,12.18
2023-05-06T04:01:13.612Z,12.17
2023-05-06T04:02:13.662Z,12.15
2023-05-06T04:03:13.626Z,12.17
2023-05-06T04:04:13.794Z,12.13
2023-05-06T04:05:13.564Z,12.17
2023-05-06T04:06:13.548Z,12.13
2023-05-06T04:07:13.515Z,12.12
2023-05-06T04:08:13.500Z,12.15
2023-05-06T04:09:13.488Z,12.13
2023-05-06T04:10:13.492Z,12.18
2023-05-06T04:11:13.466Z,12.15
2023-05-06T04:12:13.447Z,12.18
2023-05-06T04:13:13.513Z,12.18
2023-05-06T04:14:13.435Z,12.18
2023-05-06T04:15:13.442Z,12.12
2023-05-06T04:16:13.459Z,12.10
2023-05-06T04:17:13.400Z,12.18
2023-05-06T04:18:13.370Z,12.20
2023-05-06T04:19:13.371Z,12.20
2023-05-06T04:20:13.437Z,12.25
2023-05-06T04:21:13.334Z,12.24
2023-05-06T04:22:13.321Z,12.28
2023-05-06T04:23:13.314Z,12.32
2023-05-06T04:24:13.306Z,12.35
2023-05-06T04:25:13.379Z,12.37
2023-05-06T04:26:13.281Z,12.40
2023-05-06T04:27:13.269Z,12.46
2023-05-06T04:28:13.260Z,12.53
2023-05-06T04:29:13.241Z,12.53
2023-05-06T04:30:13.233Z,12.50
2023-05-06T04:31:13.224Z,12.54
2023-05-06T04:32:13.194Z,12.61
2023-05-06T04:33:13.211Z,12.67
2023-05-06T04:34:13.171Z,12.78
2023-05-06T04:35:13.150Z,12.83
2023-05-06T04:36:13.174Z,12.91
2023-05-06T04:37:13.131Z,13.01
2023-05-06T04:38:13.126Z,13.05
2023-05-06T04:39:13.101Z,13.11
2023-05-06T04:40:13.088Z,13.19
2023-05-06T04:41:13.076Z,13.19
2023-05-06T04:42:13.071Z,13.30
2023-05-06T04:43:13.073Z,13.25
2023-05-06T04:44:13.054Z,13.28
2023-05-06T04:45:13.030Z,13.37
2023-05-06T04:46:13.041Z,13.42
2023-05-06T04:47:13.010Z,13.44
2023-05-06T04:48:13.000Z,13.49
2023-05-06T04:49:12.973Z,13.57
2023-05-06T04:50:12.975Z,13.60
2023-05-06T04:51:12.947Z,13.67
2023-05-06T04:52:12.969Z,13.67
2023-05-06T04:53:12.924Z,13.57
2023-05-06T04:54:12.906Z,13.42
2023-05-06T04:55:13.019Z,13.25
2023-05-06T04:56:12.882Z,13.16
2023-05-06T04:57:12.889Z,13.19
2023-05-06T04:58:12.855Z,13.22
2023-05-06T04:59:12.839Z,13.18
2023-05-06T05:00:12.825Z,13.28
2023-05-06T05:01:12.853Z,13.27
2023-05-06T05:02:12.856Z,13.23
2023-05-06T05:03:13.004Z,13.23
2023-05-06T05:04:12.776Z,13.27
2023-05-06T05:05:12.872Z,13.28
2023-05-06T05:06:12.765Z,13.30
2023-05-06T05:07:12.734Z,13.39
2023-05-06T05:08:12.811Z,13.47
2023-05-06T05:09:12.711Z,13.59
2023-05-06T05:10:12.695Z,13.70
2023-05-06T05:11:12.700Z,13.74
2023-05-06T05:12:12.670Z,13.78
2023-05-06T05:13:12.668Z,13.79
2023-05-06T05:14:12.639Z,13.85
2023-05-06T05:15:12.858Z,13.86
2023-05-06T05:16:13.036Z,14.00
2023-05-06T05:17:12.673Z,14.18
2023-05-06T05:18:12.672Z,14.26
2023-05-06T05:19:12.573Z,14.48
2023-05-06T05:20:12.579Z,14.97
2023-05-06T05:21:12.556Z,15.72
2023-05-06T05:22:12.546Z,16.41
2023-05-06T05:23:12.514Z,16.89
2023-05-06T05:24:12.605Z,16.96
2023-05-06T05:25:12.816Z,17.08
2023-05-06T05:26:12.489Z,17.46
2023-05-06T05:27:12.478Z,17.51
2023-05-06T05:28:12.458Z,17.67
2023-05-06T05:29:12.454Z,17.63
2023-05-06T05:30:12.471Z,18.31
2023-05-06T05:31:12.457Z,18.78
2023-05-06T05:32:12.405Z,18.13
2023-05-06T05:33:13.095Z,17.89
2023-05-06T05:34:12.395Z,17.90
2023-05-06T05:35:12.466Z,17.90
2023-05-06T05:36:12.340Z,18.16
2023-05-06T05:37:12.335Z,18.88
2023-05-06T05:38:12.315Z,18.88
2023-05-06T05:39:12.366Z,19.22
2023-05-06T05:40:14.802Z,19.70
2023-05-06T05:41:12.279Z,19.71
2023-05-06T05:42:12.261Z,20.03
2023-05-06T05:43:12.251Z,20.48
2023-05-06T05:44:12.250Z,19.16
2023-05-06T05:45:12.240Z,18.45
2023-05-06T05:46:12.230Z,18.10
2023-05-06T05:47:12.201Z,18.58
2023-05-06T05:48:12.201Z,19.18
2023-05-06T05:49:12.254Z,19.71
2023-05-06T05:50:12.157Z,19.91
2023-05-06T05:51:12.158Z,19.48
2023-05-06T05:52:12.132Z,19.07
2023-05-06T05:53:12.144Z,18.63
2023-05-06T05:54:12.131Z,18.33
2023-05-06T05:55:12.098Z,18.23
2023-05-06T05:56:12.172Z,18.19
2023-05-06T05:57:12.068Z,18.29
2023-05-06T05:58:12.068Z,17.82
2023-05-06T05:59:12.039Z,17.39
2023-05-06T06:00:13.536Z,17.72
2023-05-06T06:01:12.012Z,18.44
2023-05-06T06:02:11.994Z,18.90
2023-05-06T06:03:12.060Z,19.22
2023-05-06T06:04:12.005Z,19.16
2023-05-06T06:05:12.058Z,19.36
2023-05-06T06:06:11.955Z,19.02
2023-05-06T06:07:11.953Z,19.04
2023-05-06T06:08:11.939Z,19.54
2023-05-06T06:09:11.915Z,19.95
2023-05-06T06:10:11.894Z,20.36
2023-05-06T06:11:11.881Z,20.18
2023-05-06T06:12:11.905Z,18.93
2023-05-06T06:13:11.916Z,18.63
2023-05-06T06:14:11.837Z,18.80
2023-05-06T06:15:12.014Z,19.08
2023-05-06T06:16:11.874Z,19.58
2023-05-06T06:17:11.823Z,18.88
2023-05-06T06:18:11.790Z,19.07
2023-05-06T06:19:11.788Z,18.75
2023-05-06T06:20:11.759Z,18.43
2023-05-06T06:21:11.757Z,18.31
2023-05-06T06:22:11.747Z,18.07
2023-05-06T06:23:11.719Z,18.33
2023-05-06T06:24:11.706Z,19.09
2023-05-06T06:25:11.894Z,20.25
2023-05-06T06:26:12.482Z,21.12
2023-05-06T06:27:11.668Z,21.62
2023-05-06T06:28:11.666Z,21.60
2023-05-06T06:29:11.639Z,21.27
2023-05-06T06:30:11.621Z,22.25
2023-05-06T06:31:11.658Z,22.44
2023-05-06T06:32:11.683Z,22.33
2023-05-06T06:33:11.604Z,21.89
2023-05-06T06:34:11.574Z,22.10
2023-05-06T06:35:11.831Z,22.83
2023-05-06T06:36:11.569Z,23.46
2023-05-06T06:37:11.536Z,23.15
2023-05-06T06:38:11.515Z,23.46
2023-05-06T06:39:11.507Z,23.13
2023-05-06T06:40:11.505Z,23.20
2023-05-06T06:41:11.476Z,22.93
2023-05-06T06:42:11.464Z,22.81
2023-05-06T06:43:11.458Z,22.45
2023-05-06T06:44:11.526Z,23.00
2023-05-06T06:45:11.742Z,22.50
2023-05-06T06:46:11.471Z,22.57
2023-05-06T06:47:11.409Z,22.68
2023-05-06T06:48:11.486Z,23.10
2023-05-06T06:49:11.380Z,22.99
2023-05-06T06:50:11.372Z,23.25
2023-05-06T06:51:11.353Z,23.48
2023-05-06T06:52:11.343Z,23.65
2023-05-06T06:53:11.322Z,22.94
2023-05-06T06:54:11.317Z,22.84
2023-05-06T06:55:11.636Z,22.85
2023-05-06T06:56:11.275Z,22.33
2023-05-06T06:57:11.270Z,22.57
2023-05-06T06:58:11.251Z,23.02
2023-05-06T06:59:11.251Z,23.80
2023-05-06T07:00:11.321Z,24.03
2023-05-06T07:01:11.295Z,24.21
2023-05-06T07:02:11.195Z,24.50
2023-05-06T07:03:11.248Z,24.77
2023-05-06T07:04:11.216Z,24.92
2023-05-06T07:05:11.344Z,24.85
2023-05-06T07:06:11.145Z,24.66
2023-05-06T07:07:11.135Z,24.93
2023-05-06T07:08:11.148Z,24.92
2023-05-06T07:09:11.135Z,24.99
2023-05-06T07:10:11.091Z,24.39
2023-05-06T07:11:11.079Z,24.65
2023-05-06T07:12:11.066Z,24.45
2023-05-06T07:13:11.127Z,23.59
2023-05-06T07:14:11.045Z,23.51
2023-05-06T07:15:11.180Z,23.78
2023-05-06T07:16:11.078Z,23.99
2023-05-06T07:17:11.016Z,24.63
2023-05-06T07:18:11.080Z,25.03
2023-05-06T07:19:10.977Z,25.41
2023-05-06T07:20:10.968Z,25.13
2023-05-06T07:21:10.956Z,24.42
2023-05-06T07:22:10.943Z,24.24
2023-05-06T07:23:10.940Z,24.23
2023-05-06T07:24:10.902Z,24.86
2023-05-06T07:25:11.182Z,25.25
2023-05-06T07:26:10.878Z,25.23
2023-05-06T07:27:10.882Z,24.81
2023-05-06T07:28:10.882Z,24.77
2023-05-06T07:29:10.839Z,23.87
2023-05-06T07:30:10.827Z,22.60
2023-05-06T07:31:10.840Z,22.17
2023-05-06T07:32:10.837Z,22.47
2023-05-06T07:33:10.800Z,23.56
2023-05-06T07:34:10.772Z,24.38
2023-05-06T07:35:10.961Z,24.57
2023-05-06T07:36:10.747Z,24.65
2023-05-06T07:37:10.752Z,25.08
2023-05-06T07:38:10.742Z,25.48
2023-05-06T07:39:10.715Z,25.69
2023-05-06T07:40:10.694Z,25.47
2023-05-06T07:41:10.685Z,25.78
2023-05-06T07:42:11.041Z,25.85
2023-05-06T07:43:10.660Z,25.96
2023-05-06T07:44:10.791Z,25.85
2023-05-06T07:45:10.872Z,25.98
2023-05-06T07:46:10.650Z,26.18
2023-05-06T07:47:10.695Z,26.52
2023-05-06T07:48:10.760Z,26.70
2023-05-06T07:49:10.574Z,26.92
2023-05-06T07:50:10.684Z,26.16
2023-05-06T07:51:10.569Z,25.46
2023-05-06T07:52:10.539Z,24.21
2023-05-06T07:53:10.525Z,24.13
2023-05-06T07:54:10.546Z,24.40
2023-05-06T07:55:10.705Z,24.65
2023-05-06T07:56:10.502Z,24.98
2023-05-06T07:57:10.470Z,24.88
2023-05-06T07:58:10.459Z,25.21
2023-05-06T07:59:10.445Z,26.06
2023-05-06T08:00:10.454Z,26.74
2023-05-06T08:01:11.060Z,27.39
2023-05-06T08:02:10.440Z,27.78
2023-05-06T08:03:10.468Z,28.11
2023-05-06T08:04:10.531Z,28.37
2023-05-06T08:05:10.570Z,28.84
2023-05-06T08:06:10.356Z,28.74
2023-05-06T08:07:10.341Z,28.76
2023-05-06T08:08:10.356Z,28.85
2023-05-06T08:09:14.743Z,28.60
2023-05-06T08:10:10.328Z,27.82
2023-05-06T08:11:11.020Z,25.32
2023-05-06T08:12:10.280Z,22.94
2023-05-06T08:13:10.331Z,23.08
2023-05-06T08:14:10.268Z,23.71
2023-05-06T08:15:10.534Z,23.77
2023-05-06T08:16:10.320Z,24.05
2023-05-06T08:17:10.257Z,24.45
2023-05-06T08:18:21.789Z,24.50
2023-05-06T08:19:11.215Z,24.08
2023-05-06T08:20:10.417Z,23.83
2023-05-06T08:21:10.163Z,23.78
2023-05-06T08:22:10.153Z,24.17
2023-05-06T08:23:10.146Z,24.58
2023-05-06T08:24:10.156Z,24.80
2023-05-06T08:25:10.382Z,24.39
2023-05-06T08:26:10.107Z,24.48
2023-05-06T08:27:10.086Z,25.07
2023-05-06T08:28:10.094Z,25.83
2023-05-06T08:29:10.089Z,25.78
2023-05-06T08:30:10.048Z,25.36
2023-05-06T08:31:10.167Z,24.69
2023-05-06T08:32:10.136Z,24.70
2023-05-06T08:33:10.056Z,24.35
2023-05-06T08:34:10.027Z,25.03
2023-05-06T08:35:10.210Z,25.68
2023-05-06T08:36:10.080Z,26.18
2023-05-06T08:37:09.966Z,26.85
2023-05-06T08:38:09.978Z,27.58
2023-05-06T08:39:09.947Z,28.41
2023-05-06T08:40:09.931Z,28.69
2023-05-06T08:41:09.906Z,28.98
2023-05-06T08:42:09.910Z,28.30
2023-05-06T08:43:09.901Z,27.83
2023-05-06T08:44:09.901Z,27.42
2023-05-06T08:45:10.092Z,26.80
2023-05-06T08:46:09.876Z,27.18
2023-05-06T08:47:09.852Z,26.43
2023-05-06T08:48:09.817Z,25.78
2023-05-06T08:49:09.806Z,25.18
2023-05-06T08:50:09.793Z,24.51
2023-05-06T08:51:09.782Z,23.55
2023-05-06T08:52:09.877Z,23.23
2023-05-06T08:53:09.758Z,22.96
2023-05-06T08:54:09.778Z,22.50
2023-05-06T08:55:10.347Z,22.18
2023-05-06T08:56:09.759Z,22.10
2023-05-06T08:57:12.222Z,21.83
2023-05-06T08:58:09.735Z,21.82
2023-05-06T08:59:09.725Z,21.80
2023-05-06T09:00:09.678Z,22.72
2023-05-06T09:01:09.798Z,22.96
2023-05-06T09:02:09.656Z,22.84
2023-05-06T09:03:09.727Z,22.90
2023-05-06T09:04:09.622Z,23.08
2023-05-06T09:05:09.887Z,24.30
2023-05-06T09:06:09.603Z,25.40
2023-05-06T09:07:09.585Z,26.15
2023-05-06T09:08:09.587Z,26.71
2023-05-06T09:09:09.548Z,26.93
2023-05-06T09:10:09.826Z,27.67
2023-05-06T09:11:09.536Z,28.70
2023-05-06T09:12:09.518Z,29.35
2023-05-06T09:13:09.507Z,30.03
2023-05-06T09:14:09.490Z,30.77
2023-05-06T09:15:09.718Z,30.99
2023-05-06T09:16:09.495Z,31.02
2023-05-06T09:17:09.486Z,30.48
2023-05-06T09:18:09.494Z,30.23
2023-05-06T09:19:09.420Z,30.55
2023-05-06T09:20:09.472Z,30.78
2023-05-06T09:21:09.404Z,30.57
2023-05-06T09:22:09.381Z,29.24
2023-05-06T09:23:09.365Z,28.59
2023-05-06T09:24:09.461Z,27.51
2023-05-06T09:25:09.690Z,27.35
2023-05-06T09:26:09.334Z,26.15
2023-05-06T09:27:10.913Z,25.17
2023-05-06T09:28:09.306Z,24.66
2023-05-06T09:29:09.309Z,24.68
2023-05-06T09:30:09.331Z,24.74
2023-05-06T09:31:09.318Z,24.60
2023-05-06T09:32:09.255Z,24.32
2023-05-06T09:33:09.380Z,24.01
2023-05-06T09:34:09.250Z,23.66
2023-05-06T09:35:09.493Z,23.37
2023-05-06T09:36:09.202Z,23.80
2023-05-06T09:37:09.190Z,24.73
2023-05-06T09:38:09.187Z,25.18
2023-05-06T09:39:09.190Z,24.74
2023-05-06T09:40:09.361Z,24.11
2023-05-06T09:41:09.149Z,23.83
2023-05-06T09:42:09.135Z,24.42
2023-05-06T09:43:09.128Z,25.31
2023-05-06T09:44:09.122Z,25.06
2023-05-06T09:45:09.258Z,25.85
2023-05-06T09:46:09.138Z,26.18
2023-05-06T09:47:09.070Z,26.33
2023-05-06T09:48:09.139Z,25.60
2023-05-06T09:49:09.053Z,24.88
2023-05-06T09:50:09.032Z,24.30
2023-05-06T09:51:09.009Z,24.05
2023-05-06T09:52:08.999Z,25.03
2023-05-06T09:53:09.015Z,25.87
2023-05-06T09:54:08.977Z,25.73
2023-05-06T09:55:09.482Z,25.68
2023-05-06T09:56:09.041Z,25.77
2023-05-06T09:57:08.950Z,25.58
2023-05-06T09:58:08.976Z,25.73
2023-05-06T09:59:08.914Z,26.41
2023-05-06T10:00:08.905Z,26.83
2023-05-06T10:01:08.975Z,27.47
2023-05-06T10:02:08.913Z,26.80
2023-05-06T10:03:08.960Z,25.46
2023-05-06T10:04:09.182Z,25.70
2023-05-06T10:05:09.158Z,25.50
2023-05-06T10:06:08.820Z,25.07
2023-05-06T10:07:08.823Z,24.29
2023-05-06T10:08:08.797Z,24.28
2023-05-06T10:09:08.789Z,24.35
2023-05-06T10:10:08.828Z,25.53
2023-05-06T10:11:08.779Z,26.99
2023-05-06T10:12:08.784Z,28.26
2023-05-06T10:13:08.746Z,28.69
2023-05-06T10:14:08.719Z,28.74
2023-05-06T10:15:09.048Z,28.05
2023-05-06T10:16:08.776Z,27.25
2023-05-06T10:17:08.688Z,27.20
2023-05-06T10:18:08.721Z,26.81
2023-05-06T10:19:08.657Z,26.28
2023-05-06T10:20:08.646Z,25.91
2023-05-06T10:21:08.645Z,25.69
2023-05-06T10:22:08.628Z,26.05
2023-05-06T10:23:08.621Z,26.05
2023-05-06T10:24:08.595Z,26.78
2023-05-06T10:25:08.818Z,26.62
2023-05-06T10:26:08.582Z,26.78
2023-05-06T10:27:08.552Z,26.83
2023-05-06T10:28:11.121Z,25.83
2023-05-06T10:29:09.547Z,24.13
2023-05-06T10:30:08.527Z,24.36
2023-05-06T10:31:08.508Z,25.29
2023-05-06T10:32:08.495Z,25.59
2023-05-06T10:33:08.510Z,25.90
2023-05-06T10:34:08.472Z,26.10
2023-05-06T10:35:08.658Z,26.23
2023-05-06T10:36:08.436Z,26.38
2023-05-06T10:37:08.417Z,26.23
2023-05-06T10:38:08.440Z,25.91
2023-05-06T10:39:08.399Z,25.91
2023-05-06T10:40:08.407Z,25.96
2023-05-06T10:41:08.364Z,25.93
2023-05-06T10:42:08.358Z,25.98
2023-05-06T10:43:08.351Z,25.63
2023-05-06T10:44:08.488Z,25.50
2023-05-06T10:45:08.537Z,25.33
2023-05-06T10:46:08.344Z,25.22
2023-05-06T10:47:08.286Z,25.11
2023-05-06T10:48:08.306Z,24.92
2023-05-06T10:49:08.292Z,24.33
2023-05-06T10:50:08.249Z,22.62
2023-05-06T10:51:08.232Z,22.43
2023-05-06T10:52:08.230Z,22.84
2023-05-06T10:53:08.204Z,23.21
2023-05-06T10:54:08.213Z,23.66
2023-05-06T10:55:08.415Z,24.05
2023-05-06T10:56:08.177Z,24.45
2023-05-06T10:57:08.154Z,24.68
2023-05-06T10:58:08.161Z,24.91
2023-05-06T10:59:08.389Z,25.11
2023-05-06T11:00:08.135Z,25.13
2023-05-06T11:01:08.145Z,25.22
2023-05-06T11:02:08.117Z,25.31
2023-05-06T11:03:08.314Z,25.17
2023-05-06T11:04:08.070Z,25.08
2023-05-06T11:05:08.091Z,25.16
2023-05-06T11:06:08.044Z,24.86
2023-05-06T11:07:08.033Z,24.54
2023-05-06T11:08:08.029Z,24.35
2023-05-06T11:09:08.000Z,24.21
2023-05-06T11:10:08.007Z,24.33
2023-05-06T11:11:07.975Z,24.47
2023-05-06T11:12:07.967Z,25.25
2023-05-06T11:13:07.975Z,25.55
2023-05-06T11:14:07.947Z,25.58
2023-05-06T11:15:08.280Z,25.48
2023-05-06T11:16:07.929Z,26.63
2023-05-06T11:17:07.995Z,26.95
2023-05-06T11:18:08.103Z,27.90
2023-05-06T11:19:07.899Z,28.84
2023-05-06T11:20:08.048Z,29.49
2023-05-06T11:21:07.872Z,30.39
2023-05-06T11:22:07.919Z,30.44
2023-05-06T11:23:07.825Z,27.33
2023-05-06T11:24:07.808Z,26.28
2023-05-06T11:25:07.800Z,26.31
2023-05-06T11:26:07.789Z,26.29
2023-05-06T11:27:07.782Z,26.23
2023-05-06T11:28:07.770Z,26.96
2023-05-06T11:29:07.746Z,26.83
2023-05-06T11:30:07.820Z,26.78
2023-05-06T11:31:07.942Z,26.73
2023-05-06T11:32:07.812Z,26.70
2023-05-06T11:33:07.743Z,26.59
2023-05-06T11:34:07.691Z,26.38
2023-05-06T11:35:07.701Z,26.28
2023-05-06T11:36:07.685Z,26.37
2023-05-06T11:37:07.659Z,26.21
2023-05-06T11:38:07.697Z,26.07
2023-05-06T11:39:07.615Z,26.16
2023-05-06T11:40:07.599Z,25.98
2023-05-06T11:41:07.619Z,25.95
2023-05-06T11:42:07.590Z,25.65
2023-05-06T11:43:07.568Z,25.58
2023-05-06T11:44:08.752Z,25.54
2023-05-06T11:45:07.557Z,25.51
2023-05-06T11:46:07.648Z,26.65
2023-05-06T11:47:07.579Z,27.27
2023-05-06T11:48:07.566Z,28.00
2023-05-06T11:49:07.485Z,29.08
2023-05-06T11:50:07.578Z,30.05
2023-05-06T11:51:07.477Z,30.80
2023-05-06T11:52:07.450Z,31.46
2023-05-06T11:53:07.429Z,31.54
2023-05-06T11:54:07.428Z,31.39
2023-05-06T11:55:07.445Z,31.09
2023-05-06T11:56:07.404Z,29.94
2023-05-06T11:57:07.407Z,28.76
2023-05-06T11:58:07.393Z,28.35
2023-05-06T11:59:07.368Z,28.25
2023-05-06T12:00:07.349Z,29.12
2023-05-06T12:01:07.326Z,29.26
2023-05-06T12:02:07.312Z,29.75
2023-05-06T12:03:07.348Z,29.93
2023-05-06T12:04:07.439Z,27.68
2023-05-06T12:05:07.298Z,27.90
2023-05-06T12:06:07.261Z,27.05
2023-05-06T12:07:07.249Z,26.95
2023-05-06T12:08:16.271Z,25.96
2023-05-06T12:09:08.238Z,25.47
2023-05-06T12:10:07.248Z,24.36
2023-05-06T12:11:07.213Z,23.65
2023-05-06T12:12:07.211Z,23.62
2023-05-06T12:13:07.336Z,23.73
2023-05-06T12:14:07.246Z,23.86
2023-05-06T12:15:07.214Z,23.74
2023-05-06T12:16:07.223Z,23.27
2023-05-06T12:17:07.131Z,23.27
2023-05-06T12:18:07.176Z,23.46
2023-05-06T12:19:07.106Z,23.91
2023-05-06T12:20:07.220Z,24.30
2023-05-06T12:21:07.071Z,25.54
2023-05-06T12:22:07.070Z,26.62
2023-05-06T12:23:07.068Z,27.77
2023-05-06T12:24:07.080Z,28.78
2023-05-06T12:25:07.015Z,29.59
2023-05-06T12:26:07.035Z,29.68
2023-05-06T12:27:06.994Z,30.43
2023-05-06T12:28:06.990Z,31.37
2023-05-06T12:29:06.965Z,32.07
2023-05-06T12:30:06.953Z,30.24
2023-05-06T12:31:06.980Z,29.07
2023-05-06T12:32:07.063Z,28.74
2023-05-06T12:33:06.957Z,28.70
2023-05-06T12:34:06.916Z,28.66
2023-05-06T12:35:06.898Z,28.84
2023-05-06T12:36:06.904Z,29.81
2023-05-06T12:37:06.882Z,30.65
2023-05-06T12:38:06.873Z,31.00
2023-05-06T12:39:06.840Z,31.55
2023-05-06T12:40:06.849Z,32.03
2023-05-06T12:41:06.812Z,32.40
2023-05-06T12:42:06.880Z,32.74
2023-05-06T12:43:06.799Z,32.36
2023-05-06T12:44:06.773Z,31.14
2023-05-06T12:45:06.764Z,30.32
2023-05-06T12:47:06.757Z,30.55
2023-05-06T12:48:06.863Z,31.33
2023-05-06T12:49:06.719Z,31.97
2023-05-06T12:50:06.700Z,31.56
2023-05-06T12:51:06.704Z,31.58
2023-05-06T12:52:06.781Z,31.47
2023-05-06T12:53:06.668Z,31.25